createdAt,value
2017-06-22T00:00:17.735Z,19
2017-06-22T00:01:20.393Z,18.9
2017-06-22T00:02:23.052Z,18.8
2017-06-22T00:03:25.689Z,18.8
2017-06-22T00:04:28.228Z,18.9
2017-06-22T00:05:30.888Z,18.8
2017-06-22T00:06:33.411Z,18.9
2017-06-22T00:07:35.928Z,18.9
2017-06-22T00:08:38.522Z,18.9
2017-06-22T00:09:41.131Z,19
2017-06-22T00:10:43.938Z,18.9
2017-06-22T00:11:46.497Z,18.6
2017-06-22T00:12:49.681Z,18.6
2017-06-22T00:13:52.241Z,18.6
2017-06-22T00:14:54.856Z,18.5
2017-06-22T00:15:58.097Z,18.5
2017-06-22T00:17:01.236Z,18.6
2017-06-22T00:18:03.918Z,18.5
2017-06-22T00:19:06.539Z,18.5
2017-06-22T00:20:09.179Z,18.6
2017-06-22T00:21:11.772Z,18.4
2017-06-22T00:22:15.248Z,18.5
2017-06-22T00:23:17.838Z,18.7
2017-06-22T00:24:20.698Z,18.3
2017-06-22T00:25:23.303Z,18.1
2017-06-22T00:26:25.901Z,18.1
2017-06-22T00:27:28.537Z,18.3
2017-06-22T00:28:31.230Z,18.1
2017-06-22T00:29:33.927Z,18.2
2017-06-22T00:30:36.518Z,18.2
2017-06-22T00:31:39.434Z,18.5
2017-06-22T00:32:42.080Z,18.5
2017-06-22T00:33:44.667Z,18.6
2017-06-22T00:34:47.266Z,18.6
2017-06-22T00:35:50.161Z,18.7
2017-06-22T00:36:52.766Z,18.6
2017-06-22T00:37:56.112Z,18.4
2017-06-22T00:38:59.383Z,18.8
2017-06-22T00:40:02.096Z,18.9
2017-06-22T00:41:04.703Z,18.5
2017-06-22T00:42:07.561Z,18.4
2017-06-22T00:43:10.331Z,18.4
2017-06-22T00:44:12.932Z,18.5
2017-06-22T00:45:15.538Z,18.4
2017-06-22T00:46:18.139Z,18.5
2017-06-22T00:47:20.706Z,18.5
2017-06-22T00:48:23.349Z,18.7
2017-06-22T00:49:25.914Z,18.6
2017-06-22T00:50:28.447Z,18.8
2017-06-22T00:51:31.176Z,18.8
2017-06-22T00:52:33.737Z,18.5
2017-06-22T00:53:36.277Z,18.5
2017-06-22T00:54:38.934Z,18.4
2017-06-22T00:55:42.234Z,18.5
2017-06-22T00:56:44.836Z,18.7
2017-06-22T00:57:47.466Z,18.6
2017-06-22T00:58:50.053Z,18.8
2017-06-22T00:59:53.098Z,18.8
2017-06-22T01:00:55.706Z,18.8
2017-06-22T01:01:58.357Z,18.9
2017-06-22T01:03:00.959Z,18.8
2017-06-22T01:04:03.595Z,19
2017-06-22T01:05:06.206Z,18.8
2017-06-22T01:06:08.866Z,18.8
2017-06-22T01:07:11.440Z,18.5
2017-06-22T01:08:14.049Z,18.6
2017-06-22T01:09:16.712Z,18.4
2017-06-22T01:10:19.287Z,18.5
2017-06-22T01:11:21.967Z,18.8
2017-06-22T01:12:24.531Z,18.9
2017-06-22T01:13:27.138Z,18.8
2017-06-22T01:14:29.737Z,18.8
2017-06-22T01:15:32.331Z,18.8
2017-06-22T01:16:35.014Z,18.8
2017-06-22T01:17:37.677Z,18.7
2017-06-22T01:18:40.307Z,18.6
2017-06-22T01:19:42.929Z,18.6
2017-06-22T01:20:45.498Z,18.9
2017-06-22T01:21:48.092Z,19
2017-06-22T01:22:50.710Z,19.1
2017-06-22T01:23:53.276Z,19.1
2017-06-22T01:24:55.840Z,19.1
2017-06-22T01:25:58.847Z,19
2017-06-22T01:27:01.455Z,18.9
2017-06-22T01:28:04.083Z,18.8
2017-06-22T01:29:06.707Z,18.7
2017-06-22T01:30:09.401Z,18.5
2017-06-22T01:31:11.988Z,18.3
2017-06-22T01:32:14.579Z,18.2
2017-06-22T01:33:17.210Z,18.2
2017-06-22T01:34:19.901Z,18.3
2017-06-22T01:35:22.466Z,18.4
2017-06-22T01:36:25.107Z,18.5
2017-06-22T01:37:27.677Z,18.6
2017-06-22T01:38:30.236Z,18.6
2017-06-22T01:39:32.838Z,18.7
2017-06-22T01:40:35.454Z,18.3
2017-06-22T01:41:38.071Z,18.5
2017-06-22T01:42:40.678Z,18.5
2017-06-22T01:43:43.312Z,18.5
2017-06-22T01:44:45.879Z,18.8
2017-06-22T01:45:48.452Z,18.7
2017-06-22T01:46:51.047Z,18.8
2017-06-22T01:47:53.615Z,18.6
2017-06-22T01:48:56.165Z,18.6
2017-06-22T01:49:58.721Z,18.8
2017-06-22T01:51:01.405Z,18.6
2017-06-22T01:52:03.995Z,18.5
2017-06-22T01:53:06.599Z,18.3
2017-06-22T01:54:09.152Z,18.1
2017-06-22T01:55:11.759Z,18.3
2017-06-22T01:56:14.320Z,18.1
2017-06-22T01:57:16.856Z,18
2017-06-22T01:58:19.512Z,18.2
2017-06-22T01:59:22.126Z,18.2
2017-06-22T02:00:24.669Z,18.1
2017-06-22T02:01:27.185Z,18
2017-06-22T02:02:29.828Z,18
2017-06-22T02:03:32.375Z,18.1
2017-06-22T02:04:34.892Z,18.3
2017-06-22T02:05:37.447Z,18.2
2017-06-22T02:06:40.034Z,18.2
2017-06-22T02:07:42.934Z,18.3
2017-06-22T02:08:45.494Z,18.3
2017-06-22T02:09:48.330Z,18.4
2017-06-22T02:10:50.955Z,18.5
2017-06-22T02:11:53.801Z,18.5
2017-06-22T02:12:56.357Z,18.3
2017-06-22T02:13:59.051Z,18.5
2017-06-22T02:15:01.743Z,18.5
2017-06-22T02:16:04.415Z,18.4
2017-06-22T02:17:07.086Z,18.4
2017-06-22T02:18:09.780Z,18.2
2017-06-22T02:19:12.489Z,18.4
2017-06-22T02:20:15.021Z,18.5
2017-06-22T02:21:17.615Z,18.6
2017-06-22T02:22:20.158Z,18.6
2017-06-22T02:23:22.817Z,18.6
2017-06-22T02:24:25.389Z,18.6
2017-06-22T02:25:27.998Z,18.5
2017-06-22T02:26:30.616Z,18.5
2017-06-22T02:27:33.192Z,18.5
2017-06-22T02:28:35.722Z,18.5
2017-06-22T02:29:38.292Z,18.3
2017-06-22T02:30:40.977Z,18.1
2017-06-22T02:31:43.715Z,18.1
2017-06-22T02:32:47.133Z,18.1
2017-06-22T02:33:49.713Z,18.2
2017-06-22T02:34:52.315Z,18.2
2017-06-22T02:35:54.847Z,18.3
2017-06-22T02:36:57.433Z,18.5
2017-06-22T02:38:00.055Z,18.3
2017-06-22T02:39:02.823Z,18.1
2017-06-22T02:40:05.335Z,18.1
2017-06-22T02:41:07.933Z,18.2
2017-06-22T02:42:10.443Z,18.2
2017-06-22T02:43:13.051Z,18.1
2017-06-22T02:44:15.580Z,18.1
2017-06-22T02:45:18.174Z,18.1
2017-06-22T02:46:20.804Z,17.7
2017-06-22T02:47:23.353Z,17.8
2017-06-22T02:48:25.940Z,18
2017-06-22T02:49:28.598Z,17.6
2017-06-22T02:50:31.152Z,17.9
2017-06-22T02:51:33.745Z,18.1
2017-06-22T02:52:36.390Z,18.1
2017-06-22T02:53:38.943Z,18.1
2017-06-22T02:54:41.567Z,18.1
2017-06-22T02:55:44.154Z,18.2
2017-06-22T02:56:46.881Z,18.1
2017-06-22T02:57:49.550Z,18
2017-06-22T02:58:52.383Z,17.9
2017-06-22T02:59:54.958Z,18
2017-06-22T03:00:57.518Z,17.9
2017-06-22T03:02:00.181Z,17.9
2017-06-22T03:03:02.895Z,17.9
2017-06-22T03:04:05.563Z,17.9
2017-06-22T03:05:08.147Z,17.9
2017-06-22T03:06:10.739Z,17.9
2017-06-22T03:07:13.301Z,18.1
2017-06-22T03:08:15.909Z,18.1
2017-06-22T03:09:18.500Z,18
2017-06-22T03:10:21.119Z,17.6
2017-06-22T03:11:23.735Z,17.9
2017-06-22T03:12:26.353Z,17.8
2017-06-22T03:13:28.936Z,17.7
2017-06-22T03:14:31.581Z,17.7
2017-06-22T03:15:34.313Z,17.8
2017-06-22T03:16:36.962Z,17.8
2017-06-22T03:17:39.616Z,17.8
2017-06-22T03:18:42.178Z,17.8
2017-06-22T03:19:46.381Z,17.8
2017-06-22T03:20:49.218Z,17.9
2017-06-22T03:21:52.451Z,17.9
2017-06-22T03:22:54.996Z,17.7
2017-06-22T03:23:57.709Z,17.7
2017-06-22T03:25:00.383Z,17.6
2017-06-22T03:26:02.960Z,17.6
2017-06-22T03:27:06.079Z,17.8
2017-06-22T03:28:08.700Z,17.7
2017-06-22T03:29:11.289Z,17.8
2017-06-22T03:30:13.864Z,17.7
2017-06-22T03:31:16.438Z,17.6
2017-06-22T03:32:19.024Z,17.6
2017-06-22T03:33:21.647Z,17.6
2017-06-22T03:34:24.233Z,17.7
2017-06-22T03:35:26.808Z,17.8
2017-06-22T03:36:30.412Z,17.7
2017-06-22T03:37:33.845Z,17.8
2017-06-22T03:38:36.385Z,17.9
2017-06-22T03:39:39.002Z,18
2017-06-22T03:40:41.596Z,18.1
2017-06-22T03:41:44.199Z,18.1
2017-06-22T03:42:46.759Z,18
2017-06-22T03:43:49.296Z,17.9
2017-06-22T03:44:51.901Z,18.1
2017-06-22T03:45:54.436Z,18.1
2017-06-22T03:46:57.038Z,18.1
2017-06-22T03:47:59.588Z,18
2017-06-22T03:49:02.231Z,17.9
2017-06-22T03:50:04.827Z,17.9
2017-06-22T03:51:07.488Z,18.1
2017-06-22T03:52:10.221Z,17.9
2017-06-22T03:53:12.759Z,17.9
2017-06-22T03:54:15.338Z,17.8
2017-06-22T03:55:17.992Z,18
2017-06-22T03:56:20.619Z,17.9
2017-06-22T03:57:23.171Z,18
2017-06-22T03:58:25.708Z,18.1
2017-06-22T03:59:28.308Z,18
2017-06-22T04:00:30.957Z,18.1
2017-06-22T04:01:33.520Z,18.2
2017-06-22T04:02:36.134Z,18.3
2017-06-22T04:03:39.508Z,18.4
2017-06-22T04:04:42.041Z,18.5
2017-06-22T04:05:44.661Z,18.5
2017-06-22T04:06:47.199Z,18.4
2017-06-22T04:07:49.829Z,18.5
2017-06-22T04:08:52.409Z,18.6
2017-06-22T04:09:54.961Z,18.8
2017-06-22T04:10:57.529Z,18.8
2017-06-22T04:12:00.174Z,18.6
2017-06-22T04:13:02.905Z,18.7
2017-06-22T04:14:05.450Z,18.8
2017-06-22T04:15:08.076Z,19
2017-06-22T04:16:10.594Z,18.9
2017-06-22T04:17:13.285Z,19
2017-06-22T04:18:15.818Z,19
2017-06-22T04:19:18.412Z,18.9
2017-06-22T04:20:21.023Z,19.3
2017-06-22T04:21:23.633Z,19.2
2017-06-22T04:22:26.218Z,19.3
2017-06-22T04:23:28.827Z,19.2
2017-06-22T04:24:31.633Z,19
2017-06-22T04:25:34.219Z,19
2017-06-22T04:26:36.922Z,19.2
2017-06-22T04:27:39.482Z,19.4
2017-06-22T04:28:42.312Z,19.1
2017-06-22T04:29:44.901Z,19.3
2017-06-22T04:30:47.548Z,19.3
2017-06-22T04:31:50.190Z,19
2017-06-22T04:32:52.819Z,19.4
2017-06-22T04:33:55.397Z,19.4
2017-06-22T04:34:58.046Z,19.5
2017-06-22T04:36:00.666Z,19.6
2017-06-22T04:37:03.194Z,19.8
2017-06-22T04:38:05.756Z,19.8
2017-06-22T04:39:08.489Z,19.7
2017-06-22T04:40:11.108Z,19.8
2017-06-22T04:41:13.708Z,20
2017-06-22T04:42:16.332Z,20.1
2017-06-22T04:43:19.004Z,20.1
2017-06-22T04:44:21.703Z,20.2
2017-06-22T04:45:24.290Z,20.4
2017-06-22T04:46:26.906Z,20.5
2017-06-22T04:47:29.553Z,20.5
2017-06-22T04:48:32.248Z,20.6
2017-06-22T04:49:34.773Z,20.8
2017-06-22T04:50:37.430Z,20.9
2017-06-22T04:51:40.090Z,20.7
2017-06-22T04:52:42.761Z,20.8
2017-06-22T04:53:45.362Z,20.9
2017-06-22T04:54:48.059Z,20.9
2017-06-22T04:55:50.687Z,21
2017-06-22T04:56:53.249Z,21.2
2017-06-22T04:57:55.845Z,21.3
2017-06-22T04:58:58.421Z,21.5
2017-06-22T05:00:01.018Z,21.4
2017-06-22T05:01:03.664Z,21.5
2017-06-22T05:02:06.257Z,21.6
2017-06-22T05:03:09.361Z,21.7
2017-06-22T05:04:12.196Z,21.5
2017-06-22T05:05:14.975Z,21.5
2017-06-22T05:06:17.559Z,21.6
2017-06-22T05:07:20.249Z,21.7
2017-06-22T05:08:22.860Z,21.7
2017-06-22T05:09:25.448Z,21.5
2017-06-22T05:10:30.976Z,21.5
2017-06-22T05:11:33.705Z,21.5
2017-06-22T05:12:36.377Z,21.8
2017-06-22T05:13:38.991Z,21.8
2017-06-22T05:14:42.164Z,22.1
2017-06-22T05:15:44.765Z,22.2
2017-06-22T05:16:47.372Z,22.2
2017-06-22T05:17:50.067Z,22.4
2017-06-22T05:18:52.684Z,22.6
2017-06-22T05:19:55.395Z,22.6
2017-06-22T05:20:58.081Z,22.5
2017-06-22T05:22:00.766Z,22.6
2017-06-22T05:23:03.458Z,23
2017-06-22T05:24:06.119Z,22.9
2017-06-22T05:25:10.226Z,23
2017-06-22T05:26:13.967Z,23.4
2017-06-22T05:27:16.656Z,23.5
2017-06-22T05:28:19.214Z,23.7
2017-06-22T05:29:21.934Z,23.8
2017-06-22T05:30:24.670Z,24.1
2017-06-22T05:31:27.333Z,24
2017-06-22T05:32:30.068Z,24.3
2017-06-22T05:33:32.719Z,24.7
2017-06-22T05:34:35.390Z,24.4
2017-06-22T05:35:37.951Z,24.7
2017-06-22T05:36:40.621Z,25.9
2017-06-22T05:37:43.249Z,26.6
2017-06-22T05:38:45.832Z,26.8
2017-06-22T05:39:57.659Z,27.6
2017-06-22T05:41:00.462Z,29
2017-06-22T05:42:03.125Z,29.6
2017-06-22T05:43:05.721Z,29.3
2017-06-22T05:44:08.395Z,29.9
2017-06-22T05:45:11.089Z,29.8
2017-06-22T05:46:13.889Z,31.2
2017-06-22T05:47:16.595Z,31.6
2017-06-22T05:48:19.203Z,31.9
2017-06-22T05:49:22.554Z,32.6
2017-06-22T05:50:25.177Z,32.4
2017-06-22T05:51:27.781Z,32.8
2017-06-22T05:52:30.578Z,32.1
2017-06-22T05:53:33.180Z,32.7
2017-06-22T05:54:36.841Z,32.5
2017-06-22T05:55:40.601Z,32.5
2017-06-22T05:56:46.691Z,32.6
2017-06-22T05:57:49.301Z,32.7
2017-06-22T05:58:52.061Z,33.3
2017-06-22T05:59:54.694Z,33.6
2017-06-22T06:00:57.397Z,33.6
2017-06-22T06:02:00.096Z,34.6
2017-06-22T06:03:02.807Z,34.7
2017-06-22T06:04:05.598Z,33.2
2017-06-22T06:05:08.518Z,34.5
2017-06-22T06:06:11.266Z,34.7
2017-06-22T06:07:13.863Z,34.4
2017-06-22T06:08:16.599Z,33.1
2017-06-22T06:09:19.279Z,32.1
2017-06-22T06:10:22.014Z,32.6
2017-06-22T06:11:24.748Z,32.3
2017-06-22T06:12:27.303Z,32.6
2017-06-22T06:13:30.078Z,32.5
2017-06-22T06:14:32.802Z,32.9
2017-06-22T06:15:35.743Z,31.5
2017-06-22T06:16:38.442Z,32
2017-06-22T06:17:41.384Z,32.3
2017-06-22T06:18:44.165Z,32.3
2017-06-22T06:19:46.810Z,32.1
2017-06-22T06:20:49.520Z,31.8
2017-06-22T06:21:52.145Z,31.2
2017-06-22T06:22:54.786Z,31.6
2017-06-22T06:23:57.413Z,31
2017-06-22T06:25:00.254Z,30.9
2017-06-22T06:26:03.024Z,30.7
2017-06-22T06:27:05.728Z,32.1
2017-06-22T06:28:08.492Z,32.6
2017-06-22T06:29:11.364Z,31.2
2017-06-22T06:30:14.922Z,30.9
2017-06-22T06:31:17.688Z,30.8
2017-06-22T06:32:20.445Z,30.9
2017-06-22T06:33:23.100Z,30.5
2017-06-22T06:34:25.904Z,30.9
2017-06-22T06:35:28.556Z,31
2017-06-22T06:36:31.418Z,31.2
2017-06-22T06:37:34.433Z,31.9
2017-06-22T06:38:37.872Z,32.3
2017-06-22T06:39:41.629Z,32.5
2017-06-22T06:40:46.191Z,31.9
2017-06-22T06:43:01.791Z,32.2
2017-06-22T06:44:04.945Z,32.9
2017-06-22T06:45:16.980Z,33
2017-06-22T06:46:19.809Z,33.3
2017-06-22T06:47:22.922Z,31.4
2017-06-22T06:48:25.757Z,31
2017-06-22T06:49:28.570Z,31.6
2017-06-22T06:50:31.643Z,31.1
2017-06-22T06:51:34.937Z,31.1
2017-06-22T06:52:37.998Z,30.9
2017-06-22T06:53:41.617Z,30.2
2017-06-22T06:54:45.002Z,30.5
2017-06-22T06:55:48.318Z,32.1
2017-06-22T06:56:51.301Z,32.1
2017-06-22T06:57:54.085Z,32.2
2017-06-22T06:58:56.707Z,30.8
2017-06-22T06:59:59.322Z,30.6
2017-06-22T07:01:02.149Z,31.1
2017-06-22T07:02:04.917Z,30.3
2017-06-22T07:03:07.584Z,29.7
2017-06-22T07:04:10.402Z,29.9
2017-06-22T07:05:13.051Z,30.4
2017-06-22T07:06:15.629Z,31
2017-06-22T07:07:18.236Z,31.9
2017-06-22T07:08:20.929Z,31.5
2017-06-22T07:09:23.554Z,29.8
2017-06-22T07:10:26.179Z,29.2
2017-06-22T07:11:28.761Z,28.7
2017-06-22T07:12:31.432Z,29.6
2017-06-22T07:13:34.080Z,29.1
2017-06-22T07:14:36.869Z,29.6
2017-06-22T07:15:39.664Z,29
2017-06-22T07:16:42.348Z,29.4
2017-06-22T07:17:44.949Z,30
2017-06-22T07:18:47.582Z,31
2017-06-22T07:19:50.264Z,31.4
2017-06-22T07:20:52.906Z,30.7
2017-06-22T07:21:55.497Z,32
2017-06-22T07:22:58.174Z,31.5
2017-06-22T07:24:00.912Z,31
2017-06-22T07:25:03.545Z,30.9
2017-06-22T07:26:06.251Z,30.9
2017-06-22T07:27:09.174Z,30.7
2017-06-22T07:28:12.153Z,31.6
2017-06-22T07:29:14.713Z,31.5
2017-06-22T07:30:17.421Z,31.1
2017-06-22T07:31:20.134Z,31.5
2017-06-22T07:32:22.859Z,30.9
2017-06-22T07:33:25.454Z,31.9
2017-06-22T07:34:28.316Z,33
2017-06-22T07:35:31.109Z,32.4
2017-06-22T07:36:33.711Z,32.5
2017-06-22T07:37:36.382Z,31
2017-06-22T07:38:39.127Z,31.7
2017-06-22T07:39:41.912Z,29.9
2017-06-22T07:40:44.704Z,29.3
2017-06-22T07:41:47.417Z,29.4
2017-06-22T07:42:50.711Z,30.9
2017-06-22T07:43:53.353Z,29.5
2017-06-22T07:44:55.920Z,28.6
2017-06-22T07:45:58.574Z,29.3
2017-06-22T07:47:01.293Z,29.6
2017-06-22T07:48:04.004Z,30.3
2017-06-22T07:49:06.737Z,29.9
2017-06-22T07:50:09.368Z,29.3
2017-06-22T07:51:12.080Z,30.2
2017-06-22T07:52:14.685Z,32.5
2017-06-22T07:53:17.374Z,31.3
2017-06-22T07:54:20.254Z,30.7
2017-06-22T07:55:22.868Z,29.9
2017-06-22T07:56:25.594Z,30.3
2017-06-22T07:57:28.170Z,30.4
2017-06-22T07:58:30.929Z,30.5
2017-06-22T07:59:33.877Z,32.2
2017-06-22T08:00:36.543Z,32.3
2017-06-22T08:01:39.184Z,32.8
2017-06-22T08:02:42.087Z,32.5
2017-06-22T08:03:44.803Z,33.5
2017-06-22T08:04:52.673Z,34.1
2017-06-22T08:05:55.456Z,32.9
2017-06-22T08:06:58.134Z,32.9
2017-06-22T08:08:00.949Z,35.4
2017-06-22T08:09:03.825Z,35.6
2017-06-22T08:10:06.585Z,34.7
2017-06-22T08:11:09.274Z,33.3
2017-06-22T08:12:12.524Z,33.6
2017-06-22T08:13:15.258Z,34.6
2017-06-22T08:14:18.028Z,33.6
2017-06-22T08:15:20.722Z,35.4
2017-06-22T08:16:23.418Z,35.7
2017-06-22T08:17:26.175Z,35.3
2017-06-22T08:18:28.860Z,34.5
2017-06-22T08:19:31.728Z,34.8
2017-06-22T08:20:34.553Z,36
2017-06-22T08:21:37.314Z,36.4
2017-06-22T08:22:40.113Z,36.2
2017-06-22T08:23:42.903Z,37.3
2017-06-22T08:24:45.514Z,35
2017-06-22T08:25:48.295Z,37.5
2017-06-22T08:26:51.074Z,38.1
2017-06-22T08:27:53.753Z,37.3
2017-06-22T08:28:56.553Z,37.3
2017-06-22T08:29:59.221Z,37.4
2017-06-22T08:31:02.165Z,35.9
2017-06-22T08:32:04.854Z,35.1
2017-06-22T08:33:07.569Z,36.5
2017-06-22T08:34:10.285Z,35.9
2017-06-22T08:35:13.071Z,36.1
2017-06-22T08:36:15.715Z,36
2017-06-22T08:37:18.353Z,36.5
2017-06-22T08:38:21.131Z,35.9
2017-06-22T08:39:23.788Z,36.1
2017-06-22T08:40:26.373Z,35.9
2017-06-22T08:41:30.056Z,35.7
2017-06-22T08:42:32.903Z,36.6
2017-06-22T08:43:35.681Z,37
2017-06-22T08:44:38.462Z,37.2
2017-06-22T08:45:41.303Z,36.5
2017-06-22T08:46:43.954Z,36.1
2017-06-22T08:47:47.255Z,36.8
2017-06-22T08:48:50.822Z,36.6
2017-06-22T08:49:55.883Z,36.9
2017-06-22T08:50:58.662Z,37
2017-06-22T08:52:01.535Z,36.6
2017-06-22T08:53:04.335Z,35.1
2017-06-22T08:54:07.675Z,35.2
2017-06-22T08:55:12.552Z,35
2017-06-22T08:56:21.194Z,34.7
2017-06-22T08:57:24.000Z,35.5
2017-06-22T08:58:26.647Z,36.5
2017-06-22T08:59:29.244Z,35.8
2017-06-22T09:00:36.938Z,35.9
2017-06-22T09:01:40.005Z,35.1
2017-06-22T09:02:42.809Z,35.3
2017-06-22T09:03:45.569Z,36.1
2017-06-22T09:04:48.338Z,36.8
2017-06-22T09:05:51.146Z,36.6
2017-06-22T09:07:02.072Z,35.1
2017-06-22T09:08:05.038Z,35.5
2017-06-22T09:09:07.707Z,35.9
2017-06-22T09:10:10.539Z,35.2
2017-06-22T09:11:18.486Z,35.7
2017-06-22T09:12:26.752Z,36.8
2017-06-22T09:13:29.481Z,35.7
2017-06-22T09:14:32.377Z,34.5
2017-06-22T09:15:35.132Z,36
2017-06-22T09:16:37.762Z,36.4
2017-06-22T09:17:40.468Z,34.7
2017-06-22T09:18:43.268Z,34.2
2017-06-22T09:19:45.943Z,35.7
2017-06-22T09:20:48.646Z,36.6
2017-06-22T09:21:51.352Z,36.2
2017-06-22T09:22:54.078Z,36.8
2017-06-22T09:23:56.691Z,37.3
2017-06-22T09:24:59.374Z,36.6
2017-06-22T09:26:02.505Z,36.6
2017-06-22T09:27:05.588Z,37.3
2017-06-22T09:28:08.652Z,37.4
2017-06-22T09:29:11.400Z,37
2017-06-22T09:30:14.135Z,36.8
2017-06-22T09:31:16.798Z,37.6
2017-06-22T09:32:19.710Z,37.7
2017-06-22T09:33:22.920Z,38.1
2017-06-22T09:34:25.616Z,37.9
2017-06-22T09:35:28.315Z,36.5
2017-06-22T09:36:31.106Z,38
2017-06-22T09:37:33.903Z,38
2017-06-22T09:38:36.825Z,38.1
2017-06-22T09:39:39.664Z,39.1
2017-06-22T09:40:42.568Z,37.8
2017-06-22T09:41:45.287Z,37.5
2017-06-22T09:42:47.995Z,38.4
2017-06-22T09:43:50.841Z,37.5
2017-06-22T09:44:53.591Z,38.2
2017-06-22T09:45:56.244Z,37.9
2017-06-22T09:46:58.969Z,36.9
2017-06-22T09:48:02.030Z,36.9
2017-06-22T09:49:04.988Z,37.7
2017-06-22T09:50:07.788Z,36.2
2017-06-22T09:51:10.901Z,35.2
2017-06-22T09:52:13.652Z,33.8
2017-06-22T09:53:17.166Z,33.8
2017-06-22T09:54:19.833Z,33.2
2017-06-22T09:55:22.686Z,32.7
2017-06-22T09:56:26.470Z,32.4
2017-06-22T09:57:29.060Z,32.2
2017-06-22T09:58:31.947Z,32.8
2017-06-22T09:59:34.680Z,33.9
2017-06-22T10:00:37.364Z,34.2
2017-06-22T10:01:40.010Z,35.9
2017-06-22T10:02:43.169Z,35.6
2017-06-22T10:03:45.932Z,36.1
2017-06-22T10:04:48.687Z,36.1
2017-06-22T10:05:51.495Z,35.8
2017-06-22T10:06:58.424Z,34.8
2017-06-22T10:08:01.333Z,33.8
2017-06-22T10:09:03.948Z,33.7
2017-06-22T10:10:06.858Z,33.7
2017-06-22T10:11:09.633Z,34.6
2017-06-22T10:12:12.651Z,35.2
2017-06-22T10:13:15.401Z,34.5
2017-06-22T10:14:18.045Z,35
2017-06-22T10:15:20.732Z,35.1
2017-06-22T10:16:23.540Z,35.1
2017-06-22T10:17:26.265Z,34.2
2017-06-22T10:18:28.973Z,34.2
2017-06-22T10:19:31.776Z,34.6
2017-06-22T10:20:34.820Z,34.4
2017-06-22T10:21:37.506Z,33.6
2017-06-22T10:22:46.204Z,34.6
2017-06-22T10:23:48.840Z,34.4
2017-06-22T10:24:59.929Z,33.6
2017-06-22T10:26:03.056Z,34.9
2017-06-22T10:28:14.123Z,35.5
2017-06-22T10:29:16.841Z,35.5
2017-06-22T10:30:19.641Z,35.3
2017-06-22T10:31:22.531Z,36.2
2017-06-22T10:32:25.594Z,35.4
2017-06-22T10:33:28.667Z,36.1
2017-06-22T10:34:31.500Z,36.7
2017-06-22T10:35:34.130Z,36.2
2017-06-22T10:36:37.029Z,36.2
2017-06-22T10:37:39.804Z,35.8
2017-06-22T10:38:42.708Z,35.7
2017-06-22T10:39:45.385Z,34.5
2017-06-22T10:40:48.089Z,34.9
2017-06-22T10:41:50.889Z,33.8
2017-06-22T10:42:53.673Z,33.6
2017-06-22T10:43:56.534Z,33.9
2017-06-22T10:44:59.276Z,34.3
2017-06-22T10:46:02.346Z,34.4
2017-06-22T10:47:05.022Z,35.3
2017-06-22T10:48:07.685Z,35.2
2017-06-22T10:49:10.385Z,34.2
2017-06-22T10:50:13.157Z,34.7
2017-06-22T10:51:15.954Z,35.4
2017-06-22T10:52:18.768Z,35.5
2017-06-22T10:53:21.916Z,35.5
2017-06-22T10:54:24.856Z,35.5
2017-06-22T10:55:27.850Z,35.4
2017-06-22T10:56:30.837Z,35.1
2017-06-22T10:57:33.691Z,35.6
2017-06-22T10:58:36.667Z,36
2017-06-22T10:59:39.492Z,35.8
2017-06-22T11:00:42.637Z,35.8
2017-06-22T11:01:45.700Z,36
2017-06-22T11:02:48.823Z,35.5
2017-06-22T11:03:51.859Z,35.7
2017-06-22T11:04:56.346Z,35.8
2017-06-22T11:05:59.353Z,34.4
2017-06-22T11:07:02.513Z,35.5
2017-06-22T11:08:05.955Z,35.8
2017-06-22T11:09:08.790Z,35.7
2017-06-22T11:10:11.731Z,35.8
2017-06-22T11:11:14.517Z,35.4
2017-06-22T11:12:17.576Z,35.5
2017-06-22T11:13:20.854Z,35.5
2017-06-22T11:14:24.682Z,35.5
2017-06-22T11:15:27.714Z,35.5
2017-06-22T11:16:30.620Z,35.5
2017-06-22T11:17:33.669Z,35.9
2017-06-22T11:18:36.491Z,35.9
2017-06-22T11:19:39.260Z,35.3
2017-06-22T11:20:42.256Z,34.2
2017-06-22T11:21:45.104Z,34.2
2017-06-22T11:22:47.918Z,34.4
2017-06-22T11:23:50.913Z,35.1
2017-06-22T11:24:54.333Z,35.1
2017-06-22T11:25:57.167Z,34.8
2017-06-22T11:27:00.626Z,35.1
2017-06-22T11:28:03.654Z,35
2017-06-22T11:29:07.071Z,35.1
2017-06-22T11:30:09.887Z,35
2017-06-22T11:31:12.758Z,35.2
2017-06-22T11:32:15.724Z,34
2017-06-22T11:33:18.616Z,34.1
2017-06-22T11:34:21.425Z,34.3
2017-06-22T11:35:24.103Z,35.2
2017-06-22T11:36:26.896Z,35.6
2017-06-22T11:37:34.125Z,35.1
2017-06-22T11:38:37.188Z,33.8
2017-06-22T11:39:39.949Z,34.3
2017-06-22T11:40:42.833Z,34.7
2017-06-22T11:41:45.645Z,34.8
2017-06-22T11:42:48.427Z,35
2017-06-22T11:43:51.483Z,34.8
2017-06-22T11:44:54.294Z,35
2017-06-22T11:45:57.124Z,35.3
2017-06-22T11:46:59.886Z,35.1
2017-06-22T11:48:02.891Z,34.6
2017-06-22T11:49:05.771Z,34.8
2017-06-22T11:50:08.542Z,35
2017-06-22T11:51:11.548Z,34.9
2017-06-22T11:52:14.423Z,34.5
2017-06-22T11:53:17.397Z,34.8
2017-06-22T11:54:20.421Z,34.9
2017-06-22T11:55:23.386Z,35
2017-06-22T11:56:26.222Z,34.8
2017-06-22T11:57:29.613Z,35.1
2017-06-22T11:58:32.618Z,34.7
2017-06-22T11:59:35.736Z,34.7
2017-06-22T12:00:38.515Z,34.6
2017-06-22T12:01:41.473Z,34.8
2017-06-22T12:02:44.416Z,34.9
2017-06-22T12:03:47.291Z,35
2017-06-22T12:04:50.041Z,34.7
2017-06-22T12:05:53.062Z,35
2017-06-22T12:06:55.891Z,35.2
2017-06-22T12:07:58.877Z,35.3
2017-06-22T12:09:01.836Z,35.3
2017-06-22T12:10:04.700Z,35
2017-06-22T12:11:07.548Z,34.9
2017-06-22T12:12:10.507Z,35.2
2017-06-22T12:13:13.546Z,35.4
2017-06-22T12:14:16.516Z,35.2
2017-06-22T12:15:19.340Z,35.3
2017-06-22T12:16:22.595Z,35.4
2017-06-22T12:17:26.303Z,35.5
2017-06-22T12:18:29.207Z,35.5
2017-06-22T12:19:32.256Z,35.4
2017-06-22T12:20:35.272Z,35.3
2017-06-22T12:21:38.379Z,35.3
2017-06-22T12:22:42.266Z,35.4
2017-06-22T12:23:45.116Z,34.8
2017-06-22T12:24:47.932Z,35.2
2017-06-22T12:25:50.809Z,35.4
2017-06-22T12:26:53.768Z,35.2
2017-06-22T12:27:56.551Z,35.3
2017-06-22T12:28:59.503Z,35.3
2017-06-22T12:30:02.343Z,35.3
2017-06-22T12:31:05.277Z,35.2
2017-06-22T12:32:07.982Z,34.7
2017-06-22T12:34:24.165Z,35.1
2017-06-22T12:35:27.265Z,35
2017-06-22T12:36:30.236Z,35.2
2017-06-22T12:37:33.161Z,35.1
2017-06-22T12:38:36.354Z,35.2
2017-06-22T12:39:39.985Z,35.1
2017-06-22T12:40:43.065Z,35
2017-06-22T12:41:46.119Z,34.7
2017-06-22T12:42:49.130Z,34.7
2017-06-22T12:43:52.130Z,35.1
2017-06-22T12:44:54.921Z,35
2017-06-22T12:45:57.741Z,35
2017-06-22T12:47:00.492Z,35.2
2017-06-22T12:48:03.330Z,34.9
2017-06-22T12:49:06.109Z,34.9
2017-06-22T12:50:09.063Z,34.8
2017-06-22T12:51:11.956Z,34.9
2017-06-22T12:52:14.782Z,35
2017-06-22T12:53:17.833Z,34.5
2017-06-22T12:54:20.655Z,34.5
2017-06-22T12:55:23.708Z,34.5
2017-06-22T12:56:26.474Z,34.3
2017-06-22T12:57:29.313Z,34.8
2017-06-22T12:58:32.350Z,35
2017-06-22T12:59:35.081Z,35.3
2017-06-22T13:00:37.884Z,35.4
2017-06-22T13:01:40.697Z,35.3
2017-06-22T13:02:43.679Z,35.1
2017-06-22T13:03:46.483Z,34.6
2017-06-22T13:04:49.279Z,34.5
2017-06-22T13:05:53.491Z,34.2
2017-06-22T13:06:57.556Z,34.5
2017-06-22T13:08:00.360Z,34.6
2017-06-22T13:09:03.462Z,33.9
2017-06-22T13:10:06.405Z,34.2
2017-06-22T13:11:09.265Z,33.5
2017-06-22T13:12:12.238Z,33.4
2017-06-22T13:13:15.034Z,33.6
2017-06-22T13:14:17.945Z,33.5
2017-06-22T13:15:20.677Z,33.3
2017-06-22T13:16:23.464Z,33.6
2017-06-22T13:17:26.324Z,33.4
2017-06-22T13:18:29.016Z,33.3
2017-06-22T13:19:31.837Z,32.7
2017-06-22T13:20:34.546Z,31.9
2017-06-22T13:21:37.279Z,31.8
2017-06-22T13:22:39.951Z,31.9
2017-06-22T13:23:42.709Z,32
2017-06-22T13:24:45.536Z,31.9
2017-06-22T13:25:48.177Z,32
2017-06-22T13:26:50.961Z,31.6
2017-06-22T13:27:53.740Z,31.6
2017-06-22T13:28:56.445Z,31.8
2017-06-22T13:29:59.817Z,31.9
2017-06-22T13:31:03.155Z,31.8
2017-06-22T13:32:06.479Z,31.7
2017-06-22T13:33:09.279Z,31.8
2017-06-22T13:34:12.413Z,32
2017-06-22T13:35:15.102Z,31.9
2017-06-22T13:36:17.927Z,32
2017-06-22T13:37:20.588Z,31.6
2017-06-22T13:38:23.538Z,31.6
2017-06-22T13:39:26.248Z,31.9
2017-06-22T13:40:29.019Z,31.8
2017-06-22T13:41:31.762Z,31.8
2017-06-22T13:42:35.307Z,31.8
2017-06-22T13:43:38.104Z,31.7
2017-06-22T13:44:40.751Z,31.6
2017-06-22T13:45:43.432Z,31.4
2017-06-22T13:46:46.696Z,31.3
2017-06-22T13:47:49.405Z,30.8
2017-06-22T13:49:55.655Z,30
2017-06-22T13:50:58.488Z,29
2017-06-22T13:52:01.459Z,28.4
2017-06-22T13:53:04.319Z,28.5
2017-06-22T13:54:07.189Z,28.4
2017-06-22T13:55:09.987Z,27.8
2017-06-22T13:56:12.764Z,26.3
2017-06-22T13:57:15.485Z,25.8
2017-06-22T13:58:19.043Z,24.3
2017-06-22T13:59:21.877Z,23.3
2017-06-22T14:00:24.547Z,22.5
2017-06-22T14:01:27.305Z,22
2017-06-22T14:02:30.022Z,21.6
2017-06-22T14:03:32.888Z,21.6
2017-06-22T14:04:35.713Z,21.7
2017-06-22T14:05:38.396Z,21.9
2017-06-22T14:06:40.970Z,21.7